Time;durP1;ratioP1;P1;durP2;ratioP2;P2;SDS_P1;SDS_P2;PMS_P1;PMS_P2;Temp;Humidity;BMP_temperature;BMP_pressure;BME280_temperature;BME280_humidity;BME280_pressure;Samples;Min_cycle;Max_cycle;Signal;HPM_P1;HPM_P2
2023/02/26 00:00:22;;;;;;;7.07;3.20;;;1.50;75.10;;;;;;5029347;28;20284;-77
2023/02/26 00:02:48;;;;;;;5.20;3.50;;;1.40;74.50;;;;;;5033525;28;20204;-74
2023/02/26 00:05:15;;;;;;;7.30;3.43;;;1.40;75.20;;;;;;5031823;28;20208;-75
2023/02/26 00:07:41;;;;;;;4.78;2.97;;;1.40;75.40;;;;;;5035153;28;20428;-73
2023/02/26 00:10:09;;;;;;;4.75;2.97;;;1.40;74.90;;;;;;5035479;28;20736;-74
2023/02/26 00:12:36;;;;;;;6.20;2.95;;;1.30;75.20;;;;;;5035127;28;20215;-74
2023/02/26 00:15:02;;;;;;;7.13;3.83;;;1.30;75.10;;;;;;5034969;28;20307;-77
2023/02/26 00:17:40;;;;;;;4.82;3.30;;;1.30;75.40;;;;;;5034490;28;20171;-73
2023/02/26 00:20:07;;;;;;;13.30;3.70;;;1.30;75.40;;;;;;5033516;28;20220;-75
2023/02/26 00:22:33;;;;;;;8.07;3.85;;;1.30;75.10;;;;;;5034766;28;20516;-75
2023/02/26 00:24:59;;;;;;;7.25;3.80;;;1.30;75.40;;;;;;5033427;28;20207;-76
2023/02/26 00:27:24;;;;;;;8.20;3.73;;;1.30;75.50;;;;;;5034570;28;20181;-74
2023/02/26 00:29:50;;;;;;;5.53;3.00;;;1.20;74.60;;;;;;5035043;28;20532;-75
2023/02/26 00:32:19;;;;;;;6.60;3.27;;;1.10;74.50;;;;;;5035568;28;20180;-74
2023/02/26 00:34:46;;;;;;;8.27;3.03;;;1.00;74.60;;;;;;5033608;28;20212;-76
2023/02/26 00:37:28;;;;;;;5.75;3.40;;;1.10;74.80;;;;;;5033466;28;20220;-75
2023/02/26 00:40:21;;;;;;;9.48;3.50;;;1.00;75.10;;;;;;5035192;28;20228;-76
2023/02/26 00:42:47;;;;;;;5.50;3.00;;;1.00;74.90;;;;;;5032854;28;20291;-76
2023/02/26 00:45:13;;;;;;;6.87;3.43;;;1.00;74.80;;;;;;5033147;28;20283;-76
2023/02/26 00:48:11;;;;;;;4.90;3.30;;;1.00;75.20;;;;;;5033803;28;20435;-74
2023/02/26 00:50:46;;;;;;;4.07;3.15;;;1.00;75.40;;;;;;5028837;28;20189;-77
2023/02/26 00:53:23;;;;;;;7.38;3.72;;;0.90;75.50;;;;;;5030552;28;20189;-74
2023/02/26 00:55:49;;;;;;;9.23;3.22;;;0.90;75.70;;;;;;5025256;28;20224;-74
2023/02/26 00:58:15;;;;;;;4.33;2.70;;;0.90;75.80;;;;;;5024303;28;20556;-75
2023/02/26 01:00:40;;;;;;;6.50;3.20;;;0.90;75.80;;;;;;5029962;28;20185;-76
2023/02/26 01:03:06;;;;;;;6.53;3.20;;;0.90;75.90;;;;;;5023985;28;20859;-75
2023/02/26 01:05:32;;;;;;;5.37;3.30;;;0.90;75.90;;;;;;5030975;28;20767;-75
2023/02/26 01:08:04;;;;;;;6.17;3.67;;;0.90;75.90;;;;;;5021836;28;20502;-74
2023/02/26 01:10:30;;;;;;;7.18;3.50;;;0.90;75.70;;;;;;5028191;28;20927;-74
2023/02/26 01:12:56;;;;;;;6.57;3.13;;;0.90;75.90;;;;;;5025235;28;20197;-76
2023/02/26 01:15:25;;;;;;;6.07;3.30;;;0.90;75.90;;;;;;5027831;28;20225;-74
2023/02/26 01:18:06;;;;;;;10.88;3.47;;;0.90;75.70;;;;;;5029809;28;20428;-74
2023/02/26 01:20:56;;;;;;;13.88;3.28;;;0.90;75.70;;;;;;5034216;28;20173;-77
2023/02/26 01:23:28;;;;;;;9.68;3.65;;;0.90;75.70;;;;;;5032673;28;20188;-75
2023/02/26 01:26:07;;;;;;;6.03;3.40;;;0.80;75.50;;;;;;5031824;28;20267;-75
2023/02/26 01:28:33;;;;;;;5.35;3.22;;;0.80;75.20;;;;;;5032500;28;20323;-76
2023/02/26 01:31:04;;;;;;;4.80;3.00;;;0.80;75.50;;;;;;5032746;28;20181;-76
2023/02/26 01:33:40;;;;;;;6.32;3.22;;;0.70;75.20;;;;;;5025312;28;20331;-77
2023/02/26 01:36:21;;;;;;;5.35;2.70;;;0.70;75.50;;;;;;5028686;28;20596;-75
2023/02/26 01:38:52;;;;;;;9.48;3.08;;;0.60;75.50;;;;;;5017703;28;20849;-74
2023/02/26 01:41:59;;;;;;;11.90;3.40;;;0.60;75.90;;;;;;5031269;28;20186;-75
2023/02/26 01:44:59;;;;;;;6.55;3.20;;;0.50;75.70;;;;;;5031742;28;20262;-75
2023/02/26 01:47:47;;;;;;;5.88;2.85;;;0.40;75.90;;;;;;5031650;28;20213;-75
2023/02/26 01:50:19;;;;;;;5.15;3.05;;;0.40;76.20;;;;;;5032146;28;20268;-74
2023/02/26 01:52:47;;;;;;;5.78;3.13;;;0.40;76.50;;;;;;5033306;28;20181;-75
2023/02/26 01:55:20;;;;;;;6.80;3.20;;;0.30;76.50;;;;;;5031010;28;20644;-76
2023/02/26 01:57:47;;;;;;;8.50;3.03;;;0.40;76.50;;;;;;5031573;28;20193;-73
2023/02/26 02:00:14;;;;;;;6.43;3.15;;;0.30;76.80;;;;;;5032693;28;20196;-75
2023/02/26 02:02:40;;;;;;;6.20;3.47;;;0.30;76.80;;;;;;5033240;28;20201;-75
2023/02/26 02:05:14;;;;;;;4.32;2.90;;;0.30;76.80;;;;;;5038718;28;20188;-76
2023/02/26 02:07:39;;;;;;;4.90;3.05;;;0.30;76.40;;;;;;5044201;28;20189;-79
2023/02/26 02:10:06;;;;;;;5.13;3.30;;;0.20;76.20;;;;;;5048199;28;20240;-76
2023/02/26 02:12:43;;;;;;;8.43;3.45;;;0.20;76.40;;;;;;5047959;28;20243;-78
2023/02/26 02:15:20;;;;;;;7.55;2.90;;;0.10;76.20;;;;;;5032015;28;20205;-78
2023/02/26 02:18:03;;;;;;;4.63;2.42;;;0.00;77.00;;;;;;5046839;28;20274;-76
2023/02/26 02:20:34;;;;;;;6.75;2.90;;;0.00;77.10;;;;;;5029804;28;20212;-77
2023/02/26 02:23:09;;;;;;;7.40;3.20;;;0.00;76.70;;;;;;5033783;28;20188;-76
2023/02/26 02:25:53;;;;;;;5.72;2.50;;;0.00;76.70;;;;;;5026095;28;20279;-76
2023/02/26 02:28:41;;;;;;;7.43;2.85;;;0.00;77.10;;;;;;5039822;28;20196;-75
2023/02/26 02:31:10;;;;;;;4.80;2.70;;;0.00;76.70;;;;;;5026271;28;20242;-76
2023/02/26 02:33:51;;;;;;;4.57;2.90;;;-0.10;77.00;;;;;;5025811;28;20555;-77
2023/02/26 02:36:42;;;;;;;6.45;3.10;;;0.00;77.10;;;;;;5025677;28;20227;-75
2023/02/26 02:39:17;;;;;;;6.15;2.70;;;0.00;77.10;;;;;;5031703;28;20181;-76
2023/02/26 02:41:49;;;;;;;4.82;2.78;;;0.00;77.10;;;;;;5032841;28;20600;-75
2023/02/26 02:44:18;;;;;;;5.97;3.08;;;-0.10;77.00;;;;;;5031614;28;20185;-75
2023/02/26 02:46:47;;;;;;;5.32;3.00;;;-0.20;77.00;;;;;;5029256;28;20278;-74
2023/02/26 02:49:20;;;;;;;4.45;2.95;;;-0.20;77.10;;;;;;5031314;28;20190;-76
2023/02/26 02:52:13;;;;;;;3.92;2.45;;;-0.20;77.10;;;;;;5026644;28;20181;-74
2023/02/26 02:54:57;;;;;;;12.32;3.45;;;-0.20;77.30;;;;;;5024981;28;20312;-76
2023/02/26 02:57:29;;;;;;;6.82;2.80;;;-0.20;77.40;;;;;;5030966;28;20193;-77
2023/02/26 03:00:00;;;;;;;6.25;3.05;;;-0.20;77.10;;;;;;5025825;28;20675;-75
2023/02/26 03:02:48;;;;;;;3.88;2.53;;;-0.30;77.10;;;;;;5029912;28;20208;-77
2023/02/26 03:05:14;;;;;;;11.30;3.30;;;-0.30;77.30;;;;;;5028033;28;20263;-75
2023/02/26 03:07:51;;;;;;;8.00;3.10;;;-0.30;77.30;;;;;;5032114;28;20192;-75
2023/02/26 03:10:18;;;;;;;7.72;2.92;;;-0.30;77.30;;;;;;5031791;28;20213;-73
2023/02/26 03:12:43;;;;;;;5.88;3.13;;;-0.30;77.30;;;;;;5032559;28;20274;-74
2023/02/26 03:15:10;;;;;;;4.80;2.73;;;-0.30;77.10;;;;;;5029205;28;20279;-75
2023/02/26 03:17:48;;;;;;;6.63;3.53;;;-0.30;77.00;;;;;;5024213;28;20204;-74
2023/02/26 03:20:34;;;;;;;9.00;3.10;;;-0.30;77.30;;;;;;5032123;28;20214;-76
2023/02/26 03:23:25;;;;;;;5.38;2.88;;;-0.30;77.40;;;;;;5032430;28;20506;-74
2023/02/26 03:25:57;;;;;;;5.55;3.03;;;-0.20;77.70;;;;;;5022841;28;20220;-74
2023/02/26 03:28:39;;;;;;;7.15;2.67;;;-0.20;77.60;;;;;;5031053;28;20186;-75
2023/02/26 03:31:13;;;;;;;16.42;3.60;;;-0.20;77.30;;;;;;5030764;28;20681;-77
2023/02/26 03:34:10;;;;;;;5.88;2.72;;;-0.20;77.40;;;;;;5031204;28;20575;-75
2023/02/26 03:36:36;;;;;;;7.07;3.05;;;-0.20;77.30;;;;;;5023330;28;20223;-76
2023/02/26 03:39:08;;;;;;;4.33;3.03;;;-0.20;77.10;;;;;;5032600;28;20181;-75
2023/02/26 03:41:42;;;;;;;7.40;2.50;;;-0.20;77.40;;;;;;5030275;28;20260;-74
2023/02/26 03:44:18;;;;;;;7.57;3.50;;;-0.20;77.40;;;;;;5032235;28;20196;-76
2023/02/26 03:46:48;;;;;;;5.45;3.17;;;-0.20;77.40;;;;;;5038789;28;20204;-76
2023/02/26 03:49:22;;;;;;;8.50;3.05;;;-0.20;77.10;;;;;;5036427;28;20185;-74
2023/02/26 03:51:49;;;;;;;5.75;3.28;;;-0.30;77.00;;;;;;5032084;28;20180;-75
2023/02/26 03:54:24;;;;;;;6.15;2.80;;;-0.30;77.00;;;;;;5037938;28;20177;-74
2023/02/26 03:56:51;;;;;;;5.30;3.20;;;-0.30;77.30;;;;;;5037530;28;20285;-74
2023/02/26 03:59:17;;;;;;;4.28;2.50;;;-0.30;77.30;;;;;;5034817;28;20185;-77
2023/02/26 04:01:49;;;;;;;5.00;3.10;;;-0.40;77.40;;;;;;5035602;28;20196;-74
2023/02/26 04:04:31;;;;;;;4.85;3.05;;;-0.40;77.30;;;;;;5035853;28;20200;-75
2023/02/26 04:06:57;;;;;;;7.95;3.20;;;-0.40;77.10;;;;;;5030641;28;20288;-76
2023/02/26 04:09:23;;;;;;;5.13;3.00;;;-0.40;77.30;;;;;;5034166;28;20209;-75
2023/02/26 04:11:50;;;;;;;12.27;3.20;;;-0.50;77.40;;;;;;5037142;28;20513;-77
2023/02/26 04:14:16;;;;;;;5.10;3.20;;;-0.50;77.80;;;;;;5040467;28;20248;-75
2023/02/26 04:16:43;;;;;;;5.20;3.00;;;-0.60;78.00;;;;;;5035692;28;20753;-77
2023/02/26 04:19:09;;;;;;;6.93;2.85;;;-0.60;78.00;;;;;;5033387;28;20177;-75
2023/02/26 04:21:34;;;;;;;6.53;3.17;;;-0.60;78.10;;;;;;5034079;28;20659;-77
2023/02/26 04:24:00;;;;;;;7.47;3.27;;;-0.70;78.30;;;;;;5033708;28;20177;-76
2023/02/26 04:26:26;;;;;;;5.80;2.97;;;-0.60;78.60;;;;;;5027159;28;20213;-78
2023/02/26 04:28:51;;;;;;;5.73;3.73;;;-0.60;78.40;;;;;;5030754;28;20181;-77
2023/02/26 04:31:17;;;;;;;6.47;3.50;;;-0.60;78.60;;;;;;5031931;28;20217;-76
2023/02/26 04:33:43;;;;;;;10.30;3.40;;;-0.60;78.90;;;;;;5030836;28;20189;-77
2023/02/26 04:36:09;;;;;;;6.37;3.23;;;-0.50;79.00;;;;;;5027306;28;20209;-77
2023/02/26 04:38:34;;;;;;;8.57;3.08;;;-0.50;79.00;;;;;;5029559;28;20478;-76
2023/02/26 04:41:01;;;;;;;8.47;3.00;;;-0.40;79.00;;;;;;5030234;28;20194;-76
2023/02/26 04:43:26;;;;;;;5.07;3.08;;;-0.40;79.20;;;;;;5030465;28;20230;-77
2023/02/26 04:45:52;;;;;;;7.37;3.13;;;-0.40;78.90;;;;;;5025903;28;20602;-75
2023/02/26 04:48:17;;;;;;;5.93;2.77;;;-0.30;78.70;;;;;;5026482;28;20217;-76
2023/02/26 04:50:44;;;;;;;5.50;3.20;;;-0.30;78.70;;;;;;5033748;28;20625;-76
2023/02/26 04:53:09;;;;;;;5.95;3.72;;;-0.40;78.70;;;;;;5035349;28;20196;-76
2023/02/26 04:55:35;;;;;;;4.40;3.43;;;-0.40;78.40;;;;;;5022010;28;20213;-75
2023/02/26 04:58:01;;;;;;;10.60;3.20;;;-0.50;78.60;;;;;;5036262;28;20315;-73
2023/02/26 05:00:27;;;;;;;14.40;3.43;;;-0.50;78.40;;;;;;5026905;28;20467;-73
2023/02/26 05:02:53;;;;;;;5.70;3.20;;;-0.60;78.70;;;;;;5021970;28;20501;-76
2023/02/26 05:05:18;;;;;;;8.73;3.00;;;-0.60;78.90;;;;;;5027585;28;20594;-75
2023/02/26 05:07:44;;;;;;;8.43;3.33;;;-0.60;78.90;;;;;;5026329;28;20192;-76
2023/02/26 05:10:10;;;;;;;7.13;3.73;;;-0.70;78.70;;;;;;5025447;28;20365;-74
2023/02/26 05:12:36;;;;;;;10.15;3.80;;;-0.80;79.00;;;;;;5028032;28;20556;-75
2023/02/26 05:15:02;;;;;;;5.30;3.33;;;-0.80;79.50;;;;;;5029499;28;20299;-77
2023/02/26 05:17:27;;;;;;;6.63;3.43;;;-0.90;79.60;;;;;;5031668;28;20174;-74
2023/02/26 05:19:53;;;;;;;8.23;3.33;;;-0.90;79.90;;;;;;5034135;28;20186;-75
2023/02/26 05:22:19;;;;;;;10.53;4.33;;;-0.90;79.70;;;;;;5035889;28;20185;-74
2023/02/26 05:24:44;;;;;;;6.07;2.97;;;-1.00;79.70;;;;;;5029434;28;20238;-75
2023/02/26 05:27:10;;;;;;;6.00;3.33;;;-1.00;79.90;;;;;;5028009;28;20232;-77
2023/02/26 05:29:36;;;;;;;4.40;3.10;;;-1.00;80.20;;;;;;5027909;28;20499;-75
2023/02/26 05:32:02;;;;;;;4.47;2.57;;;-1.00;80.20;;;;;;5028783;28;20220;-76
2023/02/26 05:34:28;;;;;;;11.77;3.90;;;-1.10;80.30;;;;;;5023180;28;20188;-75
2023/02/26 05:36:53;;;;;;;5.67;3.37;;;-1.10;80.60;;;;;;5025905;28;20271;-78
2023/02/26 05:39:19;;;;;;;8.60;3.10;;;-1.10;80.60;;;;;;5028775;28;20180;-78
2023/02/26 05:41:45;;;;;;;5.77;2.87;;;-1.10;81.10;;;;;;5034695;28;20173;-77
2023/02/26 05:44:11;;;;;;;4.90;3.20;;;-1.00;81.10;;;;;;5039393;28;20589;-77
2023/02/26 05:46:37;;;;;;;10.83;3.00;;;-0.90;80.80;;;;;;5040707;28;20209;-74
2023/02/26 05:49:02;;;;;;;8.43;3.43;;;-0.90;80.80;;;;;;5037269;28;20190;-77
2023/02/26 05:51:28;;;;;;;7.63;2.83;;;-0.90;80.30;;;;;;5029471;28;20196;-75
2023/02/26 05:53:54;;;;;;;6.57;2.93;;;-1.00;79.90;;;;;;5016991;28;20194;-77
2023/02/26 05:56:20;;;;;;;7.23;3.37;;;-1.00;80.00;;;;;;5025295;28;20222;-76
2023/02/26 05:58:45;;;;;;;6.47;3.83;;;-1.10;80.20;;;;;;5025217;28;20447;-76
2023/02/26 06:01:11;;;;;;;5.90;3.00;;;-1.20;80.30;;;;;;5037875;28;20194;-77
2023/02/26 06:03:39;;;;;;;7.20;3.53;;;-1.20;80.80;;;;;;5024703;28;20189;-76
2023/02/26 06:06:04;;;;;;;5.85;3.35;;;-1.30;80.90;;;;;;5033000;28;20217;-74
2023/02/26 06:08:30;;;;;;;10.53;3.87;;;-1.30;81.10;;;;;;5029973;28;20189;-76
2023/02/26 06:10:55;;;;;;;5.13;3.27;;;-1.20;81.40;;;;;;5038438;28;20212;-77
2023/02/26 06:13:21;;;;;;;12.13;3.43;;;-1.20;81.20;;;;;;5037740;28;20632;-76
2023/02/26 06:15:51;;;;;;;6.80;3.20;;;-1.20;81.50;;;;;;5028863;28;20224;-76
2023/02/26 06:18:16;;;;;;;4.15;3.00;;;-1.10;81.50;;;;;;5026381;28;20255;-78
2023/02/26 06:20:42;;;;;;;5.17;3.30;;;-1.10;81.50;;;;;;5028738;28;20190;-77
2023/02/26 06:23:07;;;;;;;7.13;3.13;;;-1.10;81.70;;;;;;5027893;28;20194;-77
2023/02/26 06:25:33;;;;;;;6.23;3.13;;;-1.10;81.50;;;;;;5022236;28;20242;-77
2023/02/26 06:27:59;;;;;;;5.50;2.93;;;-1.00;81.50;;;;;;5025917;28;20181;-78
2023/02/26 06:30:24;;;;;;;7.73;3.77;;;-1.00;81.40;;;;;;5023764;28;20185;-77
2023/02/26 06:32:50;;;;;;;5.83;2.83;;;-1.00;81.20;;;;;;5023928;28;20177;-77
2023/02/26 06:35:15;;;;;;;8.43;3.50;;;-1.10;81.10;;;;;;5024603;28;20363;-76
2023/02/26 06:37:41;;;;;;;7.47;3.50;;;-1.10;81.20;;;;;;5022617;28;20679;-78
2023/02/26 06:40:09;;;;;;;11.37;3.97;;;-1.00;81.40;;;;;;5040761;28;20192;-76
2023/02/26 06:42:35;;;;;;;6.05;3.58;;;-1.00;81.40;;;;;;5026851;28;20216;-74
2023/02/26 06:45:01;;;;;;;10.97;3.80;;;-1.00;80.90;;;;;;5019371;28;20280;-77
2023/02/26 06:47:27;;;;;;;8.70;3.97;;;-1.00;80.90;;;;;;5026522;28;21191;-78
2023/02/26 06:49:52;;;;;;;4.93;3.13;;;-1.00;80.90;;;;;;5022768;28;20423;-77
2023/02/26 06:52:18;;;;;;;6.60;3.50;;;-0.90;80.90;;;;;;5026776;28;20220;-78
2023/02/26 06:54:44;;;;;;;5.60;3.38;;;-0.80;80.60;;;;;;5026963;28;20221;-77
2023/02/26 06:57:09;;;;;;;9.27;3.80;;;-0.70;80.50;;;;;;5030225;28;20209;-77
2023/02/26 06:59:35;;;;;;;5.50;2.90;;;-0.80;80.00;;;;;;5034865;28;20237;-77
2023/02/26 07:02:00;;;;;;;6.57;3.70;;;-0.70;80.20;;;;;;5031885;28;20205;-76
2023/02/26 07:04:26;;;;;;;12.13;3.20;;;-0.70;80.00;;;;;;5022970;28;20193;-77
2023/02/26 07:06:51;;;;;;;7.33;3.50;;;-0.70;79.70;;;;;;5022625;28;20216;-76
2023/02/26 07:09:18;;;;;;;8.23;3.10;;;-0.70;79.60;;;;;;5020622;28;20189;-78
2023/02/26 07:11:44;;;;;;;7.18;3.33;;;-0.60;80.00;;;;;;5025379;28;20224;-78
2023/02/26 07:14:10;;;;;;;9.20;3.80;;;-0.60;79.60;;;;;;5024356;28;20220;-78
2023/02/26 07:16:35;;;;;;;7.20;4.03;;;-0.50;79.50;;;;;;5026596;28;20308;-75
2023/02/26 07:19:01;;;;;;;11.03;4.00;;;-0.50;79.30;;;;;;5028393;28;20188;-76
2023/02/26 07:21:26;;;;;;;5.27;3.30;;;-0.60;79.00;;;;;;5033995;28;20181;-75
2023/02/26 07:23:52;;;;;;;8.20;3.23;;;-0.70;79.20;;;;;;5038197;28;20188;-76
2023/02/26 07:26:18;;;;;;;7.73;3.40;;;-0.70;79.60;;;;;;5034906;28;20214;-75
2023/02/26 07:28:43;;;;;;;5.47;3.60;;;-0.60;80.00;;;;;;5029915;28;20224;-77
2023/02/26 07:31:09;;;;;;;5.50;3.43;;;-0.50;79.60;;;;;;5021816;28;20192;-77
2023/02/26 07:33:37;;;;;;;7.40;3.40;;;-0.40;79.50;;;;;;5022566;28;20196;-76
2023/02/26 07:36:03;;;;;;;6.22;3.30;;;-0.50;78.90;;;;;;5015884;28;20218;-76
2023/02/26 07:38:28;;;;;;;5.67;3.20;;;-0.60;79.20;;;;;;5028013;28;20173;-77
2023/02/26 07:40:55;;;;;;;7.47;3.30;;;-0.50;79.20;;;;;;5023266;28;20429;-76
2023/02/26 07:43:21;;;;;;;5.80;3.22;;;-0.40;79.20;;;;;;5021634;28;20182;-79
2023/02/26 07:45:49;;;;;;;5.70;2.60;;;-0.40;78.90;;;;;;5020956;28;20202;-76
2023/02/26 07:48:15;;;;;;;6.40;3.80;;;-0.50;79.00;;;;;;5025526;28;20455;-76
2023/02/26 07:50:40;;;;;;;7.50;3.40;;;-0.60;79.00;;;;;;5031359;28;20192;-78
2023/02/26 07:53:06;;;;;;;7.23;3.50;;;-0.60;79.20;;;;;;5024461;28;20193;-76
2023/02/26 07:55:32;;;;;;;4.43;3.27;;;-0.50;79.60;;;;;;5019858;28;20658;-79
2023/02/26 07:57:57;;;;;;;5.50;3.63;;;-0.30;79.50;;;;;;5020087;28;20672;-78
2023/02/26 08:00:23;;;;;;;7.80;3.80;;;-0.30;79.20;;;;;;5022162;28;20193;-76
2023/02/26 08:02:49;;;;;;;6.30;3.30;;;-0.10;79.00;;;;;;5024239;28;20243;-76
2023/02/26 08:05:14;;;;;;;7.30;2.93;;;-0.10;78.30;;;;;;5018752;28;20217;-77
2023/02/26 08:07:40;;;;;;;9.40;3.57;;;-0.10;78.60;;;;;;5027843;28;20185;-77
2023/02/26 08:10:06;;;;;;;7.20;3.00;;;-0.10;79.70;;;;;;5022287;28;20196;-78
2023/02/26 08:12:31;;;;;;;6.00;2.80;;;-0.10;80.00;;;;;;5034758;28;20253;-78
2023/02/26 08:14:57;;;;;;;8.73;3.07;;;-0.10;80.80;;;;;;5036729;28;20474;-75
2023/02/26 08:17:23;;;;;;;5.13;3.00;;;-0.20;80.50;;;;;;5027320;28;20503;-75
2023/02/26 08:19:48;;;;;;;6.93;3.50;;;-0.30;80.30;;;;;;5025544;28;20188;-77
2023/02/26 08:22:14;;;;;;;6.47;3.47;;;-0.20;80.80;;;;;;5021835;28;20759;-75
2023/02/26 08:24:39;;;;;;;7.23;3.23;;;-0.10;81.70;;;;;;5021083;28;20187;-75
2023/02/26 08:27:05;;;;;;;7.40;3.00;;;0.10;80.80;;;;;;5017966;28;20210;-76
2023/02/26 08:29:31;;;;;;;7.47;2.97;;;0.20;79.90;;;;;;5029482;28;20644;-77
2023/02/26 08:31:56;;;;;;;5.83;2.87;;;0.20;79.50;;;;;;5025989;28;20186;-76
2023/02/26 08:34:22;;;;;;;5.53;2.70;;;0.20;78.60;;;;;;5030160;28;20189;-77
2023/02/26 08:36:49;;;;;;;3.60;2.60;;;0.00;78.00;;;;;;5020883;28;20229;-76
2023/02/26 08:39:14;;;;;;;4.00;2.20;;;-0.10;78.30;;;;;;5024906;28;20225;-77
2023/02/26 08:41:40;;;;;;;6.10;2.27;;;-0.30;78.30;;;;;;5025358;28;20662;-77
2023/02/26 08:44:07;;;;;;;5.40;3.20;;;-0.40;78.90;;;;;;5024983;28;20185;-77
2023/02/26 08:46:33;;;;;;;4.80;2.75;;;-0.40;79.30;;;;;;5027249;28;20216;-76
2023/02/26 08:48:58;;;;;;;5.30;3.20;;;-0.30;79.50;;;;;;5029123;28;20185;-76
2023/02/26 08:51:24;;;;;;;3.73;2.67;;;-0.30;79.50;;;;;;5027334;28;20419;-77
2023/02/26 08:53:50;;;;;;;6.97;2.57;;;-0.20;79.60;;;;;;5027093;28;20178;-76
2023/02/26 08:56:16;;;;;;;9.77;3.50;;;-0.10;79.30;;;;;;5026986;28;20849;-78
2023/02/26 08:58:42;;;;;;;12.77;3.25;;;-0.10;79.20;;;;;;5027652;28;20177;-77
2023/02/26 09:01:08;;;;;;;9.35;2.70;;;0.10;79.30;;;;;;5029872;28;20193;-77
2023/02/26 09:03:34;;;;;;;4.20;2.63;;;0.20;78.90;;;;;;5031403;28;20668;-77
2023/02/26 09:05:59;;;;;;;4.43;3.00;;;0.30;78.40;;;;;;5027345;28;20538;-75
2023/02/26 09:08:25;;;;;;;7.47;3.47;;;0.30;78.10;;;;;;5026803;28;20651;-75
2023/02/26 09:10:50;;;;;;;5.27;2.70;;;0.40;78.40;;;;;;5020007;28;20200;-77
2023/02/26 09:13:16;;;;;;;5.67;3.13;;;0.20;78.10;;;;;;5024670;28;20567;-78
2023/02/26 09:15:42;;;;;;;4.57;2.80;;;0.10;78.40;;;;;;5016691;28;20213;-77
2023/02/26 09:18:14;;;;;;;4.73;3.10;;;0.30;78.90;;;;;;5022897;28;20186;-75
2023/02/26 09:20:43;;;;;;;6.22;2.53;;;0.50;79.30;;;;;;5021861;28;20652;-76
2023/02/26 09:23:09;;;;;;;4.70;2.45;;;0.60;78.40;;;;;;5024340;28;20193;-77
2023/02/26 09:25:35;;;;;;;3.97;2.30;;;0.50;77.40;;;;;;5017833;28;20206;-76
2023/02/26 09:28:01;;;;;;;5.43;3.00;;;0.50;78.00;;;;;;5023030;28;20189;-75
2023/02/26 09:30:26;;;;;;;5.23;2.40;;;0.40;78.00;;;;;;5022682;28;20181;-76
2023/02/26 09:32:52;;;;;;;11.60;2.93;;;0.50;78.10;;;;;;5025379;28;20186;-78
2023/02/26 09:35:18;;;;;;;3.17;2.65;;;0.30;78.30;;;;;;5022207;28;20213;-75
2023/02/26 09:37:43;;;;;;;4.17;3.07;;;0.40;78.90;;;;;;5022079;28;20625;-73
2023/02/26 09:40:34;;;;;;;12.60;2.60;;;0.60;79.20;;;;;;5026429;28;20178;-75
2023/02/26 09:43:12;;;;;;;8.23;2.30;;;0.70;78.30;;;;;;5035698;28;20243;-72
2023/02/26 09:45:41;;;;;;;6.55;2.90;;;0.50;77.60;;;;;;5028228;28;20204;-73
2023/02/26 09:48:11;;;;;;;3.95;2.25;;;0.50;77.60;;;;;;5034928;28;20271;-74
2023/02/26 09:50:44;;;;;;;5.38;2.55;;;0.40;77.80;;;;;;5035718;28;20627;-75
2023/02/26 09:53:24;;;;;;;3.75;2.35;;;0.40;77.70;;;;;;5033865;28;20332;-76
2023/02/26 09:55:52;;;;;;;5.68;1.90;;;0.50;78.40;;;;;;5031717;28;20216;-76
2023/02/26 09:58:32;;;;;;;5.97;1.98;;;0.50;77.80;;;;;;5033938;28;20173;-76
2023/02/26 10:01:13;;;;;;;7.38;2.45;;;0.60;78.40;;;;;;5030877;28;20195;-75
2023/02/26 10:04:46;;;;;;;2.53;2.35;;;0.70;78.00;;;;;;5034654;28;20189;-78
2023/02/26 10:07:39;;;;;;;4.95;2.65;;;0.80;77.80;;;;;;4991936;28;20209;-76
2023/02/26 10:10:32;;;;;;;6.05;2.90;;;0.60;78.70;;;;;;4976314;28;20207;-76
2023/02/26 10:12:59;;;;;;;6.78;2.83;;;0.60;79.50;;;;;;4992641;28;20190;-77
2023/02/26 10:15:36;;;;;;;5.65;2.80;;;0.60;79.60;;;;;;5000495;28;20226;-77
2023/02/26 10:18:23;;;;;;;6.20;2.83;;;0.70;79.90;;;;;;4988492;28;20225;-78
2023/02/26 10:20:57;;;;;;;5.28;2.83;;;0.80;79.60;;;;;;5002064;28;20206;-77
2023/02/26 10:23:44;;;;;;;7.55;3.10;;;0.90;79.00;;;;;;5008330;28;20222;-75
2023/02/26 10:26:19;;;;;;;4.65;2.42;;;0.80;78.40;;;;;;5007656;28;20210;-76
2023/02/26 10:29:03;;;;;;;5.82;2.45;;;0.80;77.80;;;;;;5000732;28;20237;-77
2023/02/26 10:31:51;;;;;;;2.45;2.10;;;0.90;78.10;;;;;;5002113;28;20226;-76
2023/02/26 10:34:44;;;;;;;4.05;2.42;;;0.90;78.10;;;;;;4992564;28;20188;-78
2023/02/26 10:37:37;;;;;;;3.78;2.65;;;0.80;77.80;;;;;;4988904;28;20253;-76
2023/02/26 10:40:16;;;;;;;7.97;2.90;;;0.70;78.00;;;;;;5024769;28;20252;-77
2023/02/26 10:42:45;;;;;;;2.70;2.30;;;0.70;77.80;;;;;;5027618;28;20192;-78
2023/02/26 10:45:43;;;;;;;4.95;2.40;;;0.80;77.40;;;;;;5025124;28;20263;-76
2023/02/26 10:48:32;;;;;;;4.22;2.65;;;1.00;77.00;;;;;;5014662;28;20220;-76
2023/02/26 10:51:04;;;;;;;6.38;2.53;;;1.00;76.70;;;;;;5026412;28;20225;-77
2023/02/26 10:53:30;;;;;;;5.40;2.53;;;1.00;76.70;;;;;;5026747;28;20176;-76
2023/02/26 10:56:12;;;;;;;5.15;2.85;;;1.00;76.80;;;;;;5018623;28;20299;-76
2023/02/26 10:58:38;;;;;;;3.85;2.30;;;1.00;76.50;;;;;;5023355;28;20189;-74
2023/02/26 11:01:13;;;;;;;5.63;2.88;;;1.00;76.40;;;;;;5027345;28;20656;-77
2023/02/26 11:03:42;;;;;;;4.72;2.85;;;1.10;76.50;;;;;;5037184;28;20243;-77
2023/02/26 11:06:09;;;;;;;3.40;2.42;;;1.10;76.20;;;;;;5039353;28;20216;-78
2023/02/26 11:08:41;;;;;;;3.40;2.30;;;1.10;76.50;;;;;;5040170;28;20201;-77
2023/02/26 11:11:07;;;;;;;2.78;1.88;;;1.20;76.20;;;;;;5026145;28;20264;-77
2023/02/26 11:13:36;;;;;;;4.47;2.75;;;1.20;75.80;;;;;;5027276;28;20177;-77
2023/02/26 11:16:12;;;;;;;3.05;1.85;;;1.20;75.50;;;;;;5017830;28;20217;-76
2023/02/26 11:18:48;;;;;;;3.58;2.30;;;1.20;75.90;;;;;;5021478;28;20200;-76
2023/02/26 11:21:26;;;;;;;3.42;2.70;;;1.10;75.90;;;;;;5022754;28;20936;-76
2023/02/26 11:24:03;;;;;;;6.53;2.63;;;1.20;75.90;;;;;;5032799;28;20235;-79
2023/02/26 11:26:36;;;;;;;5.80;2.75;;;1.40;75.70;;;;;;5024240;28;20287;-81
2023/02/26 11:29:03;;;;;;;3.85;2.13;;;1.60;75.40;;;;;;5027579;28;20188;-77
2023/02/26 11:31:29;;;;;;;2.83;2.00;;;1.80;74.90;;;;;;5027847;28;20722;-79
2023/02/26 11:34:07;;;;;;;2.75;2.15;;;1.80;74.00;;;;;;5027920;28;20619;-79
2023/02/26 11:36:36;;;;;;;3.25;2.20;;;1.60;74.00;;;;;;5028739;28;20245;-77
2023/02/26 11:39:18;;;;;;;3.28;2.00;;;1.50;74.60;;;;;;5026031;28;20201;-77
2023/02/26 11:41:46;;;;;;;3.33;1.55;;;1.50;74.20;;;;;;5028816;28;20192;-77
2023/02/26 11:44:37;;;;;;;2.70;2.10;;;1.50;73.30;;;;;;5033282;28;20184;-79
2023/02/26 11:47:16;;;;;;;10.60;3.08;;;1.50;73.60;;;;;;5026901;28;20207;-78
2023/02/26 11:49:45;;;;;;;2.95;2.03;;;1.70;73.90;;;;;;5030337;28;20618;-73
2023/02/26 11:52:10;;;;;;;2.05;1.73;;;1.80;73.00;;;;;;5014753;28;20208;-74
2023/02/26 11:54:38;;;;;;;3.10;1.80;;;1.70;73.00;;;;;;5021496;28;20261;-74
2023/02/26 11:57:18;;;;;;;4.47;2.40;;;1.60;73.00;;;;;;5022789;28;20213;-74
2023/02/26 11:59:50;;;;;;;6.95;2.45;;;1.70;73.30;;;;;;5021949;28;20532;-74
2023/02/26 12:02:20;;;;;;;5.45;2.35;;;1.80;73.50;;;;;;5026937;28;20287;-76
2023/02/26 12:04:51;;;;;;;2.83;1.85;;;1.80;73.70;;;;;;5029923;28;20193;-75
2023/02/26 12:07:17;;;;;;;2.78;1.65;;;1.80;73.60;;;;;;5029226;28;20691;-78
2023/02/26 12:09:44;;;;;;;4.35;1.85;;;1.60;73.90;;;;;;5026477;28;20177;-77
2023/02/26 12:12:24;;;;;;;2.85;2.00;;;1.40;75.50;;;;;;5026202;28;20240;-76
2023/02/26 12:14:57;;;;;;;1.80;1.50;;;1.50;76.20;;;;;;5019087;28;20186;-78
2023/02/26 12:17:44;;;;;;;4.88;2.20;;;1.50;76.40;;;;;;5028210;28;20221;-76
2023/02/26 12:20:45;;;;;;;2.65;2.13;;;1.60;76.70;;;;;;5019485;28;20280;-78
2023/02/26 12:23:40;;;;;;;5.30;2.55;;;1.70;75.90;;;;;;5015784;28;20281;-77
2023/02/26 12:26:24;;;;;;;4.00;2.00;;;1.60;75.20;;;;;;5000903;28;20217;-76
2023/02/26 12:29:11;;;;;;;4.18;1.88;;;1.60;75.20;;;;;;5020490;28;20185;-76
2023/02/26 12:32:21;;;;;;;3.88;2.30;;;1.50;75.20;;;;;;5029661;28;20246;-77
2023/02/26 12:35:15;;;;;;;3.50;1.77;;;1.50;75.90;;;;;;5025444;28;20243;-77
2023/02/26 12:38:05;;;;;;;4.22;2.05;;;1.50;76.10;;;;;;5023207;28;20208;-77
2023/02/26 12:40:49;;;;;;;3.00;1.98;;;1.70;75.70;;;;;;5028396;28;20188;-74
2023/02/26 12:43:52;;;;;;;2.97;2.03;;;1.50;75.10;;;;;;5025651;28;20196;-72
2023/02/26 12:46:47;;;;;;;2.05;1.85;;;1.50;75.20;;;;;;5007993;28;20243;-74
2023/02/26 12:49:41;;;;;;;2.45;2.08;;;1.40;75.50;;;;;;5005921;28;20186;-74
2023/02/26 12:52:37;;;;;;;5.20;2.17;;;1.40;75.20;;;;;;5012308;28;20186;-77
2023/02/26 12:55:19;;;;;;;2.70;2.10;;;1.60;75.20;;;;;;5027876;28;20236;-78
2023/02/26 12:57:49;;;;;;;3.97;2.35;;;1.90;75.20;;;;;;5024318;28;20244;-76
2023/02/26 13:00:39;;;;;;;3.75;2.00;;;2.00;74.30;;;;;;5010128;28;20193;-77
2023/02/26 13:03:13;;;;;;;3.80;2.10;;;2.20;74.20;;;;;;5011177;28;20214;-75
2023/02/26 13:05:47;;;;;;;2.50;1.95;;;2.10;73.90;;;;;;5011117;28;20543;-75
2023/02/26 13:08:46;;;;;;;3.40;2.35;;;1.90;73.90;;;;;;5008956;28;20188;-75
2023/02/26 13:11:20;;;;;;;2.17;1.90;;;2.00;74.00;;;;;;4972716;28;20214;-74
2023/02/26 13:14:10;;;;;;;3.38;1.88;;;2.10;73.70;;;;;;4970866;28;20210;-75